Terminal Aerodrome Forecast
Issued by NWS Charleston, WV

Home | Current Version | Previous Version | Text Only | Print | Product List | Glossary On
Versions: 1 2 3 4 5 6 7 8 9 10 11 12 13 14 15 16 17 18 19 20 21 22 23 24 25
000
FTUS41 KRLX 071726
TAFBKW
TAF
KBKW 071726Z 0718/0818 23009KT P6SM BKN050
     FM072000 23008KT P6SM VCTS BKN040CB
     FM080600 22006KT 3SM BR VCTS BKN035CB
     FM080900 22007KT 3SM BR VCTS BKN025CB
     FM081300 23007KT 3SM BR VCTS SCT004 BKN010CB=

USA.gov is the U.S. government's official web portal to all federal, state and local government web resources and services.